Time;durP1;ratioP1;P1;durP2;ratioP2;P2;SDS_P1;SDS_P2;PMS_P1;PMS_P2;Temp;Humidity;BMP_temperature;BMP_pressure;BME280_temperature;BME280_humidity;BME280_pressure;Samples;Min_cycle;Max_cycle;Signal;HPM_P1;HPM_P2
2021/12/12 00:01:13;;;;;;;35.10;14.38;;;;;;;;;;5054619;28;20017;-61
2021/12/12 00:03:47;;;;;;;35.63;15.32;;;;;;;;;;5053742;28;20028;-62
2021/12/12 00:06:24;;;;;;;36.15;15.48;;;;;;;;;;5046563;28;20074;-64
2021/12/12 00:08:54;;;;;;;29.77;14.02;;;;;;;;;;5041884;28;20037;-57
2021/12/12 00:11:25;;;;;;;36.47;16.80;;;;;;;;;;5060378;28;20398;-53
2021/12/12 00:13:54;;;;;;;;;;;;;;;;;;5047274;28;20108;-56
2021/12/12 00:16:20;;;;;;;31.95;14.95;;;;;;;;;;5061630;28;19917;-61
2021/12/12 00:18:46;;;;;;;30.90;14.75;;;;;;;;;;5044565;28;20507;-52
2021/12/12 00:21:13;;;;;;;35.15;16.35;;;;;;;;;;5053522;28;20036;-51
2021/12/12 00:23:39;;;;;;;29.05;13.90;;;;;;;;;;5047077;28;20499;-53
2021/12/12 00:26:05;;;;;;;35.53;15.82;;;;;;;;;;5044219;28;20135;-61
2021/12/12 00:28:32;;;;;;;36.78;15.95;;;;;;;;;;5045204;28;20557;-58
2021/12/12 00:31:08;;;;;;;26.35;12.88;;;;;;;;;;5063873;28;20064;-65
2021/12/12 00:33:35;;;;;;;30.50;14.27;;;;;;;;;;5051322;28;20031;-64
2021/12/12 00:36:02;;;;;;;30.70;14.40;;;;;;;;;;5059840;28;20037;-58
2021/12/12 00:38:30;;;;;;;32.28;14.70;;;;;;;;;;5057464;28;20031;-61
2021/12/12 00:41:00;;;;;;;33.85;16.27;;;;;;;;;;5063861;28;20048;-62
2021/12/12 00:43:46;;;;;;;37.13;16.23;;;;;;;;;;5049487;28;20025;-66
2021/12/12 00:46:12;;;;;;;32.88;13.93;;;;;;;;;;5049922;28;20044;-65
2021/12/12 00:48:41;;;;;;;33.05;14.52;;;;;;;;;;5043168;28;20037;-61
2021/12/12 00:51:09;;;;;;;40.33;15.50;;;;;;;;;;5056870;28;20086;-64
2021/12/12 00:53:36;;;;;;;34.97;15.27;;;;;;;;;;5054530;28;20029;-59
2021/12/12 00:56:02;;;;;;;33.72;14.98;;;;;;;;;;5047347;28;20036;-58
2021/12/12 00:58:28;;;;;;;30.95;15.57;;;;;;;;;;5049933;28;20037;-62
2021/12/12 01:00:59;;;;;;;29.48;13.45;;;;;;;;;;5045860;28;20040;-64
2021/12/12 01:03:28;;;;;;;31.63;14.93;;;;;;;;;;5056534;28;20731;-61
2021/12/12 01:05:57;;;;;;;36.30;16.13;;;;;;;;;;5050651;28;20028;-62
2021/12/12 01:08:23;;;;;;;34.53;14.32;;;;;;;;;;5053720;28;20482;-62
2021/12/12 01:11:03;;;;;;;33.03;14.88;;;;;;;;;;5052640;28;20017;-53
2021/12/12 01:13:30;;;;;;;33.35;14.98;;;;;;;;;;5052462;28;20046;-54
2021/12/12 01:16:09;;;;;;;28.88;12.95;;;;;;;;;;5052802;28;20077;-56
2021/12/12 01:18:39;;;;;;;37.22;15.65;;;;;;;;;;5050132;28;20028;-55
2021/12/12 01:21:29;;;;;;;32.03;13.93;;;;;;;;;;5052428;28;20031;-59
2021/12/12 01:24:19;;;;;;;34.28;15.27;;;;;;;;;;5050507;28;20044;-59
2021/12/12 01:26:46;;;;;;;31.50;14.63;;;;;;;;;;5048407;28;20104;-52
2021/12/12 01:29:13;;;;;;;33.88;14.88;;;;;;;;;;5047904;28;20032;-64
2021/12/12 01:31:46;;;;;;;35.65;15.57;;;;;;;;;;5049372;28;20032;-53
2021/12/12 01:34:15;;;;;;;34.83;14.85;;;;;;;;;;5046680;28;20106;-65
2021/12/12 01:36:51;;;;;;;32.83;14.63;;;;;;;;;;5054850;28;20499;-57
2021/12/12 01:39:22;;;;;;;36.60;15.48;;;;;;;;;;5051338;28;20538;-53
2021/12/12 01:41:57;;;;;;;29.50;14.15;;;;;;;;;;5046094;28;20053;-55
2021/12/12 01:44:44;;;;;;;31.17;14.32;;;;;;;;;;5040785;28;20036;-58
2021/12/12 01:47:19;;;;;;;31.13;14.18;;;;;;;;;;5051761;28;20027;-56
2021/12/12 01:49:48;;;;;;;33.47;14.50;;;;;;;;;;5052938;28;20483;-58
2021/12/12 01:52:19;;;;;;;28.08;12.52;;;;;;;;;;5052614;28;20581;-61
2021/12/12 01:54:46;;;;;;;;;;;;;;;;;;5054806;28;20029;-66
2021/12/12 01:57:17;;;;;;;25.02;11.80;;;;;;;;;;5055783;28;19920;-55
2021/12/12 01:59:45;;;;;;;33.90;14.25;;;;;;;;;;5054208;28;20032;-64
2021/12/12 02:02:15;;;;;;;29.98;14.40;;;;;;;;;;5052952;28;20039;-59
2021/12/12 02:04:48;;;;;;;32.90;14.07;;;;;;;;;;5055688;28;20033;-65
2021/12/12 02:07:17;;;;;;;35.83;16.23;;;;;;;;;;5054668;28;20033;-54
2021/12/12 02:09:43;;;;;;;35.83;15.65;;;;;;;;;;5052250;28;20033;-61
2021/12/12 02:12:10;;;;;;;34.03;15.77;;;;;;;;;;5049263;28;20052;-58
2021/12/12 02:14:38;;;;;;;34.17;14.82;;;;;;;;;;5046336;28;20039;-55
2021/12/12 02:17:16;;;;;;;34.40;14.18;;;;;;;;;;5064027;28;20431;-61
2021/12/12 02:35:54;;;;;;;32.42;13.70;;;;;;;;;;5052148;28;20075;-53
2021/12/12 02:38:28;;;;;;;33.70;14.02;;;;;;;;;;5052232;28;20158;-60
2021/12/12 02:41:06;;;;;;;35.70;14.35;;;;;;;;;;5052140;28;20045;-58
2021/12/12 02:43:40;;;;;;;31.45;14.88;;;;;;;;;;5048386;28;20080;-54
2021/12/12 02:46:07;;;;;;;31.25;14.40;;;;;;;;;;5057923;28;20043;-63
2021/12/12 02:48:41;;;;;;;33.63;14.63;;;;;;;;;;5067256;28;20067;-62
2021/12/12 02:51:11;;;;;;;34.42;15.18;;;;;;;;;;5065651;28;20064;-63
2021/12/12 02:53:41;;;;;;;33.13;14.43;;;;;;;;;;5060227;28;20388;-63
2021/12/12 02:56:20;;;;;;;33.35;14.38;;;;;;;;;;5059731;28;20041;-61
2021/12/12 02:58:46;;;;;;;34.30;15.77;;;;;;;;;;5065932;28;20033;-65
2021/12/12 03:01:37;;;;;;;30.75;14.55;;;;;;;;;;5056096;28;20025;-56
2021/12/12 03:04:04;;;;;;;32.30;13.95;;;;;;;;;;5039560;28;20037;-63
2021/12/12 03:06:33;;;;;;;28.10;12.68;;;;;;;;;;5063843;28;20033;-57
2021/12/12 03:09:22;;;;;;;30.35;14.32;;;;;;;;;;5062692;28;20079;-57
2021/12/12 03:11:51;;;;;;;27.48;12.57;;;;;;;;;;5067518;28;20029;-59
2021/12/12 03:14:17;;;;;;;32.38;12.25;;;;;;;;;;5050718;28;20032;-60
2021/12/12 03:16:42;;;;;;;30.95;14.25;;;;;;;;;;5052728;28;20057;-64
2021/12/12 03:19:08;;;;;;;31.48;14.52;;;;;;;;;;5059268;28;20033;-58
2021/12/12 03:21:42;;;;;;;29.42;13.05;;;;;;;;;;5063557;28;20036;-61
2021/12/12 03:24:20;;;;;;;32.13;14.02;;;;;;;;;;5059344;28;20094;-55
2021/12/12 03:26:49;;;;;;;32.10;14.27;;;;;;;;;;5054676;28;20479;-61
2021/12/12 03:29:15;;;;;;;30.27;14.13;;;;;;;;;;5055092;28;20063;-66
2021/12/12 03:31:46;;;;;;;36.50;14.75;;;;;;;;;;5055091;28;20040;-64
2021/12/12 03:34:15;;;;;;;31.48;12.43;;;;;;;;;;5055121;28;20040;-62
2021/12/12 03:36:42;;;;;;;32.25;14.20;;;;;;;;;;5058812;28;20033;-59
2021/12/12 03:39:14;;;;;;;34.38;15.77;;;;;;;;;;5054563;28;20036;-62
2021/12/12 03:41:40;;;;;;;37.58;15.25;;;;;;;;;;5054620;28;20139;-64
2021/12/12 03:44:11;;;;;;;38.70;15.75;;;;;;;;;;5054648;28;20151;-62
2021/12/12 03:46:37;;;;;;;31.90;14.80;;;;;;;;;;5054793;28;20507;-64
2021/12/12 03:49:05;;;;;;;32.17;13.43;;;;;;;;;;5054585;28;20029;-57
2021/12/12 03:51:32;;;;;;;32.47;14.43;;;;;;;;;;5054593;28;20122;-64
2021/12/12 03:53:57;;;;;;;31.55;14.55;;;;;;;;;;5070909;28;20030;-66
2021/12/12 03:56:24;;;;;;;28.63;13.88;;;;;;;;;;5067087;28;20029;-64
2021/12/12 03:58:50;;;;;;;30.65;14.48;;;;;;;;;;5066946;28;20112;-60
2021/12/12 04:01:18;;;;;;;32.25;14.48;;;;;;;;;;5066851;28;20080;-63
2021/12/12 04:03:45;;;;;;;35.50;14.07;;;;;;;;;;5066817;28;20029;-58
2021/12/12 04:06:14;;;;;;;34.03;15.05;;;;;;;;;;5062510;28;20561;-61
2021/12/12 04:08:46;;;;;;;33.83;14.88;;;;;;;;;;5066477;28;20028;-65
2021/12/12 04:11:26;;;;;;;36.45;14.00;;;;;;;;;;5065881;28;20086;-54
2021/12/12 04:13:53;;;;;;;37.38;14.60;;;;;;;;;;5046555;28;20029;-64
2021/12/12 04:16:21;;;;;;;29.73;13.43;;;;;;;;;;5049159;28;20093;-59
2021/12/12 04:18:47;;;;;;;32.67;14.60;;;;;;;;;;5065519;28;20442;-58
2021/12/12 04:21:16;;;;;;;36.00;14.93;;;;;;;;;;5069776;28;20039;-61
2021/12/12 04:23:42;;;;;;;29.42;13.75;;;;;;;;;;5069400;28;20483;-65
2021/12/12 04:26:21;;;;;;;33.10;13.88;;;;;;;;;;5065752;28;20131;-54
2021/12/12 04:28:59;;;;;;;31.98;13.63;;;;;;;;;;5053753;28;20489;-61
2021/12/12 04:31:25;;;;;;;30.75;13.52;;;;;;;;;;5052265;28;20075;-60
2021/12/12 04:33:52;;;;;;;34.10;14.52;;;;;;;;;;5061023;28;20112;-55
2021/12/12 04:36:18;;;;;;;32.15;12.82;;;;;;;;;;5045885;28;20032;-63
2021/12/12 04:38:43;;;;;;;37.85;15.15;;;;;;;;;;5057870;28;20021;-62
2021/12/12 04:41:09;;;;;;;33.00;13.85;;;;;;;;;;5053700;28;20080;-58
2021/12/12 04:43:35;;;;;;;33.28;14.80;;;;;;;;;;5053422;28;20032;-64
2021/12/12 04:46:09;;;;;;;33.78;15.23;;;;;;;;;;5053601;28;20032;-63
2021/12/12 04:51:29;;;;;;;35.65;15.38;;;;;;;;;;5056911;28;20403;-57
2021/12/12 04:54:24;;;;;;;36.22;14.35;;;;;;;;;;5064766;28;20032;-59
2021/12/12 04:56:49;;;;;;;33.03;13.98;;;;;;;;;;5063710;28;20037;-56
2021/12/12 04:59:25;;;;;;;29.45;11.50;;;;;;;;;;5064926;28;20138;-63
2021/12/12 05:02:03;;;;;;;37.78;14.70;;;;;;;;;;5046988;28;20400;-59
2021/12/12 05:04:47;;;;;;;32.15;13.60;;;;;;;;;;5061215;28;20060;-58
2021/12/12 05:07:18;;;;;;;30.02;13.60;;;;;;;;;;5039887;28;20036;-58
2021/12/12 05:09:52;;;;;;;43.67;15.75;;;;;;;;;;5053279;28;20107;-58
2021/12/12 05:12:31;;;;;;;35.55;14.93;;;;;;;;;;5057050;28;20116;-65
2021/12/12 05:15:01;;;;;;;36.30;15.27;;;;;;;;;;5053037;28;20041;-64
2021/12/12 05:17:40;;;;;;;33.50;14.27;;;;;;;;;;5052837;28;20028;-62
2021/12/12 05:20:12;;;;;;;41.60;17.30;;;;;;;;;;5053030;28;20028;-62
2021/12/12 05:22:51;;;;;;;37.78;15.57;;;;;;;;;;5052267;28;20038;-57
2021/12/12 05:25:21;;;;;;;40.05;17.13;;;;;;;;;;5052924;28;20058;-59
2021/12/12 05:27:51;;;;;;;44.78;17.92;;;;;;;;;;5053066;28;20025;-62
2021/12/12 05:30:21;;;;;;;38.73;16.73;;;;;;;;;;5052790;28;20028;-62
2021/12/12 05:32:50;;;;;;;39.90;17.00;;;;;;;;;;5061607;28;20613;-65
2021/12/12 05:35:19;;;;;;;44.80;21.42;;;;;;;;;;5051711;28;20079;-63
2021/12/12 05:37:53;;;;;;;33.95;14.93;;;;;;;;;;5056913;28;20077;-63
2021/12/12 05:40:23;;;;;;;32.85;14.35;;;;;;;;;;5064101;28;20044;-64
2021/12/12 05:42:51;;;;;;;32.65;15.10;;;;;;;;;;5064005;28;20127;-59
2021/12/12 05:45:17;;;;;;;31.55;13.30;;;;;;;;;;5056158;28;20029;-59
2021/12/12 05:47:43;;;;;;;39.17;16.27;;;;;;;;;;5061102;28;20024;-64
2021/12/12 05:50:12;;;;;;;31.85;15.18;;;;;;;;;;5060591;28;20029;-56
2021/12/12 05:52:38;;;;;;;37.35;16.52;;;;;;;;;;5056609;28;20521;-59
2021/12/12 05:55:08;;;;;;;42.38;16.17;;;;;;;;;;5060521;28;20075;-64
2021/12/12 05:57:34;;;;;;;35.23;14.67;;;;;;;;;;5052324;28;20060;-61
2021/12/12 06:00:04;;;;;;;39.08;16.80;;;;;;;;;;5061560;28;20117;-65
2021/12/12 06:02:32;;;;;;;36.80;15.60;;;;;;;;;;5063818;28;20145;-64
2021/12/12 06:04:58;;;;;;;35.58;15.57;;;;;;;;;;5063690;28;20033;-66
2021/12/12 06:07:25;;;;;;;42.03;16.17;;;;;;;;;;5063363;28;20040;-58
2021/12/12 06:09:51;;;;;;;41.10;14.40;;;;;;;;;;5050059;28;20033;-62
2021/12/12 06:12:18;;;;;;;35.83;16.10;;;;;;;;;;5048882;28;20048;-58
2021/12/12 06:14:44;;;;;;;36.88;16.27;;;;;;;;;;5058561;28;20036;-62
2021/12/12 06:17:14;;;;;;;31.23;14.10;;;;;;;;;;5067416;28;20020;-61
2021/12/12 06:19:42;;;;;;;38.30;16.77;;;;;;;;;;5055684;28;20025;-62
2021/12/12 06:22:08;;;;;;;34.80;16.10;;;;;;;;;;5058438;28;20280;-61
2021/12/12 06:24:35;;;;;;;38.65;15.90;;;;;;;;;;5060293;28;20039;-59
2021/12/12 06:27:16;;;;;;;39.22;16.52;;;;;;;;;;5056403;28;20132;-63
2021/12/12 06:29:45;;;;;;;34.95;15.50;;;;;;;;;;5056012;28;20017;-65
2021/12/12 06:32:10;;;;;;;35.08;14.85;;;;;;;;;;5057147;28;20025;-59
2021/12/12 06:34:36;;;;;;;39.13;14.77;;;;;;;;;;5066703;28;20039;-62
2021/12/12 06:37:02;;;;;;;35.28;15.23;;;;;;;;;;5071724;28;20101;-53
2021/12/12 06:39:29;;;;;;;31.58;13.38;;;;;;;;;;5065698;28;20384;-58
2021/12/12 06:41:55;;;;;;;33.03;15.13;;;;;;;;;;5051174;28;20052;-62
2021/12/12 06:44:21;;;;;;;34.85;14.95;;;;;;;;;;5052817;28;20554;-64
2021/12/12 06:46:47;;;;;;;37.53;13.98;;;;;;;;;;5056121;28;20025;-58
2021/12/12 06:49:16;;;;;;;27.95;11.68;;;;;;;;;;5055599;28;20017;-62
2021/12/12 06:51:49;;;;;;;35.20;14.55;;;;;;;;;;5056302;28;20118;-62
2021/12/12 06:54:20;;;;;;;41.78;15.52;;;;;;;;;;5055911;28;20032;-63
2021/12/12 06:56:49;;;;;;;38.30;14.43;;;;;;;;;;5056681;28;20443;-61
2021/12/12 06:59:15;;;;;;;35.55;16.17;;;;;;;;;;5055701;28;20075;-59
2021/12/12 07:01:41;;;;;;;36.63;14.18;;;;;;;;;;5056659;28;20029;-59
2021/12/12 07:04:09;;;;;;;37.10;15.65;;;;;;;;;;5055428;28;20060;-62
2021/12/12 07:06:36;;;;;;;36.13;13.27;;;;;;;;;;5055547;28;20033;-61
2021/12/12 07:09:08;;;;;;;37.60;16.33;;;;;;;;;;5055530;28;20024;-65
2021/12/12 07:11:35;;;;;;;41.03;17.00;;;;;;;;;;5056545;28;20028;-60
2021/12/12 07:14:01;;;;;;;45.03;17.27;;;;;;;;;;5055813;28;20059;-61
2021/12/12 07:16:31;;;;;;;35.15;16.15;;;;;;;;;;5047690;28;20428;-58
2021/12/12 07:18:57;;;;;;;37.13;15.90;;;;;;;;;;5051510;28;20028;-63
2021/12/12 07:21:25;;;;;;;33.25;16.13;;;;;;;;;;5055454;28;20111;-59
2021/12/12 07:23:51;;;;;;;38.17;15.65;;;;;;;;;;5055385;28;20040;-57
2021/12/12 07:26:19;;;;;;;41.58;17.45;;;;;;;;;;5066976;28;20063;-64
2021/12/12 07:28:45;;;;;;;42.90;16.77;;;;;;;;;;5070861;28;20481;-60
2021/12/12 07:31:19;;;;;;;44.47;17.35;;;;;;;;;;5070867;28;20040;-65
2021/12/12 07:33:48;;;;;;;36.83;15.30;;;;;;;;;;5064097;28;20111;-60
2021/12/12 07:36:16;;;;;;;49.60;18.80;;;;;;;;;;5063140;28;20115;-65
2021/12/12 07:38:45;;;;;;;43.67;17.73;;;;;;;;;;5062866;28;20056;-57
2021/12/12 07:41:12;;;;;;;47.95;16.98;;;;;;;;;;5062877;28;20514;-62
2021/12/12 07:43:38;;;;;;;55.65;18.48;;;;;;;;;;5062811;28;20033;-59
2021/12/12 07:46:05;;;;;;;50.78;19.38;;;;;;;;;;5061425;28;20025;-55
2021/12/12 07:48:33;;;;;;;48.00;18.95;;;;;;;;;;5062969;28;20033;-57
2021/12/12 07:50:59;;;;;;;53.20;19.55;;;;;;;;;;5062734;28;20056;-57
2021/12/12 07:53:26;;;;;;;54.42;19.55;;;;;;;;;;5066228;28;20028;-62
2021/12/12 07:55:54;;;;;;;51.65;17.90;;;;;;;;;;5054834;28;20040;-60
2021/12/12 07:58:20;;;;;;;47.95;19.27;;;;;;;;;;5056756;28;20163;-59
2021/12/12 08:00:49;;;;;;;55.60;18.17;;;;;;;;;;5057609;28;20464;-55
2021/12/12 08:03:19;;;;;;;49.40;19.52;;;;;;;;;;5056155;28;20488;-65
2021/12/12 08:05:45;;;;;;;;;;;;;;;;;;5054823;28;20041;-61
2021/12/12 08:08:13;;;;;;;45.92;16.92;;;;;;;;;;5054265;28;19913;-63
2021/12/12 08:10:42;;;;;;;40.70;16.83;;;;;;;;;;5054233;28;20086;-65
2021/12/12 08:13:10;;;;;;;45.50;17.35;;;;;;;;;;5051456;28;20028;-62
2021/12/12 08:15:36;;;;;;;42.10;17.55;;;;;;;;;;5044614;28;20036;-62
2021/12/12 08:18:04;;;;;;;47.10;18.25;;;;;;;;;;5057497;28;20021;-61
2021/12/12 08:20:30;;;;;;;47.83;17.67;;;;;;;;;;5053694;28;20021;-62
2021/12/12 08:22:57;;;;;;;47.58;19.48;;;;;;;;;;5051628;28;20024;-66
2021/12/12 08:25:25;;;;;;;47.85;18.50;;;;;;;;;;5054113;28;20025;-56
2021/12/12 08:27:52;;;;;;;42.22;18.08;;;;;;;;;;5054225;28;20100;-64
2021/12/12 08:30:18;;;;;;;49.03;18.50;;;;;;;;;;5053961;28;20029;-64
2021/12/12 08:32:47;;;;;;;44.03;18.17;;;;;;;;;;5053846;28;20025;-65
2021/12/12 08:35:15;;;;;;;52.08;21.40;;;;;;;;;;5054239;28;20110;-61
2021/12/12 08:37:42;;;;;;;28.70;12.68;;;;;;;;;;5053964;28;20394;-65
2021/12/12 08:40:10;;;;;;;44.90;18.35;;;;;;;;;;5053749;28;20114;-61
2021/12/12 08:42:36;;;;;;;53.85;20.35;;;;;;;;;;5054008;28;20021;-63
2021/12/12 08:45:07;;;;;;;44.90;19.23;;;;;;;;;;5053776;28;20074;-61
2021/12/12 08:47:35;;;;;;;48.92;20.63;;;;;;;;;;5053849;28;20032;-64
2021/12/12 08:50:01;;;;;;;53.38;19.67;;;;;;;;;;5053692;28;20027;-62
2021/12/12 08:52:34;;;;;;;52.90;20.40;;;;;;;;;;5053840;28;20091;-64
2021/12/12 08:55:01;;;;;;;49.17;18.30;;;;;;;;;;5053512;28;20082;-65
2021/12/12 08:57:39;;;;;;;51.45;19.33;;;;;;;;;;5053352;28;20183;-60
2021/12/12 09:00:10;;;;;;;55.85;20.08;;;;;;;;;;5053479;28;20030;-64
2021/12/12 09:02:36;;;;;;;53.53;19.30;;;;;;;;;;5052475;28;20021;-64
2021/12/12 09:05:08;;;;;;;48.72;18.30;;;;;;;;;;5053275;28;20040;-60
2021/12/12 09:07:44;;;;;;;50.20;19.88;;;;;;;;;;5053511;28;20025;-65
2021/12/12 09:10:15;;;;;;;56.55;20.10;;;;;;;;;;5046446;28;20020;-58
2021/12/12 09:13:13;;;;;;;63.95;20.42;;;;;;;;;;5053165;28;20533;-59
2021/12/12 09:15:44;;;;;;;60.50;21.23;;;;;;;;;;5048621;28;20039;-59
2021/12/12 09:18:17;;;;;;;48.33;19.02;;;;;;;;;;5052282;28;20082;-63
2021/12/12 09:20:56;;;;;;;48.72;18.48;;;;;;;;;;5044903;28;20037;-60
2021/12/12 09:23:25;;;;;;;45.72;16.10;;;;;;;;;;5043904;28;20063;-56
2021/12/12 09:25:59;;;;;;;47.95;17.35;;;;;;;;;;5047339;28;20055;-55
2021/12/12 09:28:51;;;;;;;47.42;17.85;;;;;;;;;;5047648;28;20104;-56
2021/12/12 09:31:26;;;;;;;60.92;19.02;;;;;;;;;;5050678;28;20021;-65
2021/12/12 09:34:18;;;;;;;42.50;16.85;;;;;;;;;;5049020;28;20029;-60
2021/12/12 09:36:53;;;;;;;51.45;18.55;;;;;;;;;;5025965;28;20559;-62
2021/12/12 09:39:26;;;;;;;50.60;18.70;;;;;;;;;;5027625;28;20053;-56
2021/12/12 09:42:28;;;;;;;52.53;18.83;;;;;;;;;;5025774;28;20049;-57
2021/12/12 09:45:18;;;;;;;47.25;17.67;;;;;;;;;;5025663;28;20041;-63
2021/12/12 09:51:15;;;;;;;46.58;17.73;;;;;;;;;;5016391;28;20497;-65
2021/12/12 09:53:56;;;;;;;51.55;20.02;;;;;;;;;;5030499;28;20076;-61
2021/12/12 09:56:39;;;;;;;48.03;18.05;;;;;;;;;;5030098;28;20072;-60
2021/12/12 09:59:23;;;;;;;48.08;18.00;;;;;;;;;;5019038;28;20033;-62
2021/12/12 10:02:07;;;;;;;51.75;17.17;;;;;;;;;;5021863;28;20483;-58
2021/12/12 10:05:04;;;;;;;47.33;16.35;;;;;;;;;;5028905;28;20504;-66
2021/12/12 10:07:57;;;;;;;51.47;17.60;;;;;;;;;;5027596;28;20119;-61
2021/12/12 10:10:33;;;;;;;47.75;17.95;;;;;;;;;;5027549;28;20097;-57
2021/12/12 10:13:24;;;;;;;45.75;18.05;;;;;;;;;;5032899;28;20041;-57
2021/12/12 10:16:07;;;;;;;44.58;17.35;;;;;;;;;;5045610;28;20025;-64
2021/12/12 10:18:41;;;;;;;43.65;17.55;;;;;;;;;;5048964;28;20109;-65
2021/12/12 10:21:19;;;;;;;48.00;16.67;;;;;;;;;;5049816;28;20087;-65
2021/12/12 10:23:56;;;;;;;44.00;17.15;;;;;;;;;;5044759;28;20504;-63
2021/12/12 10:26:31;;;;;;;45.83;17.20;;;;;;;;;;5050893;28;20041;-55
2021/12/12 10:29:03;;;;;;;46.85;17.38;;;;;;;;;;5050679;28;20029;-62
2021/12/12 10:31:28;;;;;;;40.55;16.23;;;;;;;;;;5049394;28;20055;-61
2021/12/12 10:34:20;;;;;;;39.50;17.80;;;;;;;;;;5051964;28;20032;-63
2021/12/12 10:37:14;;;;;;;44.50;16.90;;;;;;;;;;5051937;28;20471;-65
2021/12/12 10:39:45;;;;;;;40.53;15.45;;;;;;;;;;5052011;28;20422;-64
2021/12/12 10:42:15;;;;;;;45.20;17.02;;;;;;;;;;5051838;28;20025;-64
2021/12/12 10:44:47;;;;;;;54.75;18.52;;;;;;;;;;5051904;28;20033;-63
2021/12/12 10:47:28;;;;;;;45.58;16.35;;;;;;;;;;5049539;28;20119;-67
2021/12/12 10:50:14;;;;;;;47.58;17.95;;;;;;;;;;5051683;28;20025;-66
2021/12/12 10:53:06;;;;;;;33.63;12.27;;;;;;;;;;5051898;28;20435;-65
2021/12/12 10:55:58;;;;;;;51.60;17.55;;;;;;;;;;5051450;28;20033;-66
2021/12/12 10:58:56;;;;;;;47.90;15.85;;;;;;;;;;5052134;28;20025;-64
2021/12/12 11:01:31;;;;;;;45.97;16.65;;;;;;;;;;5029495;28;20547;-62
2021/12/12 11:04:17;;;;;;;43.53;15.52;;;;;;;;;;5029918;28;20500;-60
2021/12/12 11:06:55;;;;;;;42.17;15.98;;;;;;;;;;5030617;28;20037;-65
2021/12/12 11:09:29;;;;;;;42.08;13.88;;;;;;;;;;5029538;28;20114;-66
2021/12/12 11:12:00;;;;;;;43.72;16.55;;;;;;;;;;5029724;28;20068;-60
2021/12/12 11:14:34;;;;;;;47.30;16.83;;;;;;;;;;5029841;28;20105;-64
2021/12/12 11:17:25;;;;;;;43.22;15.55;;;;;;;;;;5029804;28;20030;-66
2021/12/12 11:20:18;;;;;;;47.65;15.80;;;;;;;;;;5031777;28;20116;-62
2021/12/12 11:22:55;;;;;;;41.25;15.40;;;;;;;;;;5032415;28;20048;-66
2021/12/12 11:25:42;;;;;;;44.17;14.68;;;;;;;;;;5030964;28;20179;-65
2021/12/12 11:28:21;;;;;;;49.15;15.75;;;;;;;;;;5033346;28;20030;-65
2021/12/12 11:31:08;;;;;;;45.83;15.55;;;;;;;;;;5016336;28;20036;-67
2021/12/12 11:33:36;;;;;;;47.13;15.40;;;;;;;;;;5033332;28;20033;-66
2021/12/12 11:36:04;;;;;;;47.13;15.98;;;;;;;;;;5032971;28;20033;-65
2021/12/12 11:38:41;;;;;;;48.95;15.35;;;;;;;;;;5060712;28;20040;-66
2021/12/12 11:41:20;;;;;;;42.92;14.40;;;;;;;;;;5054882;28;20183;-56
2021/12/12 11:44:01;;;;;;;39.53;14.85;;;;;;;;;;5054669;28;20029;-65
2021/12/12 11:46:34;;;;;;;47.80;15.98;;;;;;;;;;5055034;28;20036;-66
2021/12/12 11:49:11;;;;;;;46.20;16.83;;;;;;;;;;5054925;28;20013;-65
2021/12/12 11:51:42;;;;;;;43.72;16.05;;;;;;;;;;5053461;28;20498;-65
2021/12/12 11:54:16;;;;;;;44.67;17.45;;;;;;;;;;5054489;28;20139;-64
2021/12/12 11:56:49;;;;;;;43.85;17.73;;;;;;;;;;5049309;28;20032;-63
2021/12/12 11:59:53;;;;;;;40.63;16.73;;;;;;;;;;5051251;28;20023;-64
2021/12/12 12:02:25;;;;;;;35.65;13.15;;;;;;;;;;5051929;28;20033;-66
2021/12/12 12:05:00;;;;;;;38.83;16.35;;;;;;;;;;5047132;28;20108;-67
2021/12/12 12:07:49;;;;;;;32.58;14.90;;;;;;;;;;5042084;28;20124;-66
2021/12/12 12:10:37;;;;;;;36.65;16.20;;;;;;;;;;5058589;28;20388;-67
2021/12/12 12:13:11;;;;;;;34.15;14.60;;;;;;;;;;5043025;28;20357;-65
2021/12/12 12:15:58;;;;;;;35.13;15.75;;;;;;;;;;5050272;28;20100;-68
2021/12/12 12:19:01;;;;;;;39.08;16.17;;;;;;;;;;5053213;28;20021;-63
2021/12/12 12:21:32;;;;;;;33.85;14.82;;;;;;;;;;5050555;28;20087;-68
2021/12/12 12:24:19;;;;;;;34.25;14.38;;;;;;;;;;5053752;28;20029;-70
2021/12/12 12:26:52;;;;;;;37.25;15.52;;;;;;;;;;5053840;28;20053;-65
2021/12/12 12:29:33;;;;;;;32.38;15.55;;;;;;;;;;5051336;28;20029;-64
2021/12/12 12:32:07;;;;;;;37.15;15.70;;;;;;;;;;5052945;28;20522;-77
2021/12/12 12:34:54;;;;;;;90.28;38.42;;;;;;;;;;5053746;28;20029;-73
2021/12/12 12:37:58;;;;;;;44.83;19.70;;;;;;;;;;5053643;28;20501;-68
2021/12/12 12:40:47;;;;;;;37.08;15.38;;;;;;;;;;5039089;28;20052;-65
2021/12/12 12:43:37;;;;;;;37.40;16.15;;;;;;;;;;5048432;28;20032;-66
2021/12/12 12:46:40;;;;;;;39.55;16.35;;;;;;;;;;5056571;28;20045;-69
2021/12/12 12:49:30;;;;;;;33.38;16.38;;;;;;;;;;5050217;28;20381;-66
2021/12/12 12:52:33;;;;;;;42.83;17.48;;;;;;;;;;5046674;28;20405;-72
2021/12/12 12:55:38;;;;;;;34.53;16.58;;;;;;;;;;5059160;28;20040;-72
2021/12/12 12:58:30;;;;;;;41.72;16.27;;;;;;;;;;5051919;28;20024;-63
2021/12/12 13:01:12;;;;;;;40.17;17.15;;;;;;;;;;5053343;28;20095;-60
2021/12/12 13:03:50;;;;;;;33.58;16.25;;;;;;;;;;5052273;28;20086;-70
2021/12/12 13:06:53;;;;;;;44.58;18.00;;;;;;;;;;5053233;28;20029;-60
2021/12/12 13:09:33;;;;;;;47.17;17.83;;;;;;;;;;5048981;28;20086;-66
2021/12/12 13:12:32;;;;;;;37.63;17.08;;;;;;;;;;5048715;28;20575;-72
2021/12/12 13:15:40;;;;;;;44.03;18.35;;;;;;;;;;5048168;28;20044;-67
2021/12/12 13:18:24;;;;;;;37.13;15.55;;;;;;;;;;5046385;28;20094;-65
2021/12/12 13:21:11;;;;;;;41.70;17.30;;;;;;;;;;5053089;28;20037;-66
2021/12/12 13:23:42;;;;;;;38.70;15.20;;;;;;;;;;5052567;28;20460;-68
2021/12/12 13:26:16;;;;;;;48.03;17.42;;;;;;;;;;5053178;28;20166;-68
2021/12/12 13:28:56;;;;;;;46.67;18.50;;;;;;;;;;5051719;28;20025;-66
2021/12/12 13:31:40;;;;;;;40.83;15.88;;;;;;;;;;5048875;28;20028;-66
2021/12/12 13:34:31;;;;;;;41.67;18.00;;;;;;;;;;5040326;28;20539;-67
2021/12/12 13:37:25;;;;;;;43.83;18.45;;;;;;;;;;5047377;28;20060;-68
2021/12/12 13:39:51;;;;;;;48.10;19.85;;;;;;;;;;5045774;28;20053;-79
2021/12/12 13:42:26;;;;;;;48.25;18.88;;;;;;;;;;5052617;28;20544;-71
2021/12/12 13:45:13;;;;;;;46.13;19.35;;;;;;;;;;5052690;28;20079;-68
2021/12/12 13:47:56;;;;;;;54.72;20.13;;;;;;;;;;5052140;28;20464;-68
2021/12/12 13:50:41;;;;;;;50.95;21.52;;;;;;;;;;5052031;28;20112;-63
2021/12/12 13:53:16;;;;;;;48.28;20.00;;;;;;;;;;5052615;28;20107;-62
2021/12/12 13:55:50;;;;;;;53.40;19.95;;;;;;;;;;5053053;28;20028;-64
2021/12/12 13:58:22;;;;;;;34.70;18.38;;;;;;;;;;5052542;28;20029;-65
2021/12/12 14:00:55;;;;;;;25.38;11.05;;;;;;;;;;5052178;28;20100;-64
2021/12/12 14:03:33;;;;;;;56.00;21.70;;;;;;;;;;5051442;28;20412;-67
2021/12/12 14:06:02;;;;;;;41.70;16.17;;;;;;;;;;5052658;28;20036;-66
2021/12/12 14:08:31;;;;;;;57.38;22.25;;;;;;;;;;5052241;28;20052;-63
2021/12/12 14:11:05;;;;;;;54.60;21.65;;;;;;;;;;5052533;28;20048;-65
2021/12/12 14:13:38;;;;;;;54.03;21.10;;;;;;;;;;5051218;28;20079;-62
2021/12/12 14:16:13;;;;;;;43.88;20.10;;;;;;;;;;5052056;28;20101;-63
2021/12/12 14:18:45;;;;;;;51.83;20.63;;;;;;;;;;5052323;28;20455;-64
2021/12/12 14:21:13;;;;;;;48.20;18.92;;;;;;;;;;5053077;28;20075;-64
2021/12/12 14:23:40;;;;;;;39.28;15.32;;;;;;;;;;5050440;28;20549;-62
2021/12/12 14:26:22;;;;;;;45.92;19.42;;;;;;;;;;5051992;28;20061;-60
2021/12/12 14:28:50;;;;;;;40.53;17.45;;;;;;;;;;5052384;28;20037;-60
2021/12/12 14:31:24;;;;;;;37.95;16.00;;;;;;;;;;5051669;28;20021;-64
2021/12/12 14:34:00;;;;;;;38.60;16.20;;;;;;;;;;5051541;28;20423;-64
2021/12/12 14:36:28;;;;;;;49.80;21.67;;;;;;;;;;5049367;28;20075;-64
2021/12/12 14:38:58;;;;;;;42.28;14.60;;;;;;;;;;5052375;28;20107;-62
2021/12/12 14:41:41;;;;;;;51.03;21.50;;;;;;;;;;5051747;28;20044;-62
2021/12/12 14:44:15;;;;;;;32.08;12.68;;;;;;;;;;5052959;28;20499;-61
2021/12/12 14:46:44;;;;;;;39.25;17.35;;;;;;;;;;5058686;28;20109;-63
2021/12/12 14:49:14;;;;;;;41.65;20.55;;;;;;;;;;5051890;28;20091;-67
2021/12/12 14:51:53;;;;;;;51.50;22.60;;;;;;;;;;5051917;28;20096;-66
2021/12/12 14:54:21;;;;;;;54.85;20.55;;;;;;;;;;5046622;28;20083;-63
2021/12/12 14:56:54;;;;;;;45.10;19.38;;;;;;;;;;5055569;28;20023;-62
2021/12/12 14:59:28;;;;;;;36.47;14.82;;;;;;;;;;5054492;28;20162;-60
2021/12/12 15:01:58;;;;;;;52.42;20.08;;;;;;;;;;5049677;28;20029;-59
2021/12/12 15:04:34;;;;;;;38.35;18.50;;;;;;;;;;5044405;28;20036;-61
2021/12/12 15:07:10;;;;;;;47.35;19.65;;;;;;;;;;5057328;28;20123;-64
2021/12/12 15:09:44;;;;;;;47.47;19.23;;;;;;;;;;5053839;28;20025;-66
2021/12/12 15:12:35;;;;;;;43.30;19.58;;;;;;;;;;5045765;28;20029;-67
2021/12/12 15:15:05;;;;;;;38.38;16.00;;;;;;;;;;5043482;28;20029;-67
2021/12/12 15:17:31;;;;;;;;;;;;;;;;;;5059833;28;20033;-68
2021/12/12 15:20:00;;;;;;;38.35;15.55;;;;;;;;;;5055658;28;20295;-73